Time;durP1;ratioP1;P1;durP2;ratioP2;P2;SDS_P1;SDS_P2;PMS_P1;PMS_P2;Temp;Humidity;BMP_temperature;BMP_pressure;BME280_temperature;BME280_humidity;BME280_pressure;Samples;Min_cycle;Max_cycle;Signal;HPM_P1;HPM_P2
2022/11/20 00:01:22;;;;;;;;;14.50;10.00;;;;;10.59;60.10;100959.63;6342191;22;45240;-60
2022/11/20 00:03:48;;;;;;;;;9.25;8.50;;;;;10.53;60.10;100954.44;6342184;22;45269;-60
2022/11/20 00:06:16;;;;;;;;;12.00;10.00;;;;;10.49;59.91;100958.84;6340115;22;46143;-60
2022/11/20 00:08:43;;;;;;;;;10.50;5.50;;;;;10.46;60.02;100955.38;6342146;22;45372;-60
2022/11/20 00:11:11;;;;;;;;;9.50;8.50;;;;;10.42;60.12;100956.31;6341320;22;45089;-60
2022/11/20 00:13:37;;;;;;;;;14.50;9.00;;;;;10.37;59.89;100958.97;6341393;22;45177;-60
2022/11/20 00:16:05;;;;;;;;;9.50;8.75;;;;;10.35;59.91;100956.31;6341953;22;45300;-61
2022/11/20 00:18:32;;;;;;;;;9.50;7.50;;;;;10.30;60.00;100963.38;6341637;22;45310;-61
2022/11/20 00:21:06;;;;;;;;;13.50;8.00;;;;;10.28;60.05;100965.16;6341873;22;45197;-61
2022/11/20 00:23:32;;;;;;;;;8.00;8.00;;;;;10.24;59.83;100971.31;6341740;22;45363;-61
2022/11/20 00:26:03;;;;;;;;;8.00;6.00;;;;;10.22;59.75;100966.06;6341297;22;46152;-61
2022/11/20 00:28:29;;;;;;;;;6.50;6.50;;;;;10.20;60.01;100964.34;6341323;22;45408;-61
2022/11/20 00:31:04;;;;;;;;;9.00;9.00;;;;;10.18;59.78;100964.34;6341961;22;45365;-60
2022/11/20 00:33:30;;;;;;;;;7.50;6.25;;;;;10.18;59.79;100963.50;6341479;22;45242;-61
2022/11/20 00:36:01;;;;;;;;;11.00;8.00;;;;;10.16;59.86;100960.88;6339705;22;45404;-61
2022/11/20 00:38:26;;;;;;;;;8.25;8.25;;;;;10.14;60.01;100965.28;6341663;22;46055;-61
2022/11/20 00:40:57;;;;;;;;;7.00;7.00;;;;;10.11;59.81;100957.41;6341654;22;47952;-61
2022/11/20 00:43:22;;;;;;;;;8.75;8.75;;;;;10.09;60.22;100967.06;6341950;22;45190;-61
2022/11/20 00:45:47;;;;;;;;;9.50;7.75;;;;;9.98;59.90;100956.66;6339810;22;46498;-61
2022/11/20 00:48:13;;;;;;;;;7.25;7.25;;;;;10.05;59.60;100974.09;6341616;22;48804;-61
2022/11/20 00:50:39;;;;;;;;;9.75;9.50;;;;;10.04;59.79;100968.88;6341469;22;45356;-61
2022/11/20 00:53:04;;;;;;;;;10.50;9.25;;;;;10.00;59.90;100969.75;6341838;22;45088;-61
2022/11/20 00:55:29;;;;;;;;;9.75;8.25;;;;;9.99;59.85;100974.16;6341198;22;45148;-61
2022/11/20 00:57:54;;;;;;;;;9.25;8.00;;;;;9.94;59.62;100965.44;6341093;22;45186;-61
2022/11/20 01:00:20;;;;;;;;;13.00;10.25;;;;;9.91;59.76;100961.09;6341777;22;45081;-61
2022/11/20 01:02:45;;;;;;;;;10.25;10.25;;;;;9.89;59.73;100970.72;6342107;22;45246;-61
2022/11/20 01:05:10;;;;;;;;;8.25;7.75;;;;;9.87;59.88;100979.50;6341929;22;45154;-61
2022/11/20 01:07:36;;;;;;;;;11.50;9.50;;;;;9.82;59.78;100976.03;6341225;22;45312;-61
2022/11/20 01:10:01;;;;;;;;;8.75;8.75;;;;;9.80;59.75;100975.16;6341697;22;45140;-61
2022/11/20 01:12:26;;;;;;;;;12.50;10.25;;;;;9.74;59.89;100968.22;6340859;22;46064;-62
2022/11/20 01:14:51;;;;;;;;;14.50;8.25;;;;;9.70;59.92;100966.50;6339273;22;54572;-61
2022/11/20 01:17:17;;;;;;;;;10.25;8.25;;;;;9.66;59.77;100964.75;6341827;22;45088;-62
2022/11/20 01:19:42;;;;;;;;;12.25;9.25;;;;;9.63;59.77;100975.28;6341656;22;45472;-61
2022/11/20 01:22:07;;;;;;;;;9.00;7.75;;;;;9.58;60.04;100972.69;6341552;22;45357;-61
2022/11/20 01:24:33;;;;;;;;;9.50;9.25;;;;;9.50;60.03;100972.75;6341688;22;45891;-61
2022/11/20 01:26:58;;;;;;;;;12.75;10.50;;;;;9.46;60.16;100978.00;6341666;22;45299;-62
2022/11/20 01:29:24;;;;;;;;;7.50;7.00;;;;;9.37;60.12;100974.56;6341724;22;45438;-62
2022/11/20 01:31:51;;;;;;;;;11.25;7.25;;;;;9.34;59.64;100981.56;6341640;22;45220;-62
2022/11/20 01:34:19;;;;;;;;;8.00;6.50;;;;;9.30;59.97;100982.47;6340952;22;46262;-61
2022/11/20 01:36:44;;;;;;;;;8.75;8.00;;;;;9.27;59.80;100978.97;6341497;22;45222;-62
2022/11/20 01:39:13;;;;;;;;;11.50;7.25;;;;;9.21;60.17;100968.53;6341382;22;45132;-62
2022/11/20 01:44:51;;;;;;;;;8.25;7.00;;;;;9.11;59.95;100980.78;6341767;22;45613;-61
2022/11/20 01:47:40;;;;;;;;;12.00;8.25;;;;;9.06;59.87;100976.47;6341662;22;45250;-61
2022/11/20 01:50:17;;;;;;;;;9.25;6.75;;;;;9.02;59.97;100977.34;6340745;22;45172;-61
2022/11/20 01:52:52;;;;;;;;;10.00;7.00;;;;;8.96;60.18;100973.00;6339356;22;45203;-63
2022/11/20 01:55:21;;;;;;;;;11.25;7.00;;;;;8.97;59.95;100977.38;6341689;22;46534;-61
2022/11/20 01:57:48;;;;;;;;;8.50;4.50;;;;;8.96;60.00;100974.75;6341524;22;45088;-62
2022/11/20 02:00:18;;;;;;;;;8.75;6.50;;;;;8.92;60.13;100968.66;6341368;22;45214;-61
2022/11/20 02:02:51;;;;;;;;;8.25;8.25;;;;;8.91;60.12;100972.16;6341516;22;45245;-61
2022/11/20 02:05:25;;;;;;;;;8.25;8.25;;;;;8.86;60.17;100966.06;6341587;22;46083;-61
2022/11/20 02:07:50;;;;;;;;;11.25;7.25;;;;;8.81;60.15;100955.59;6341154;22;45221;-61
2022/11/20 02:10:16;;;;;;;;;11.00;6.50;;;;;8.78;59.90;100959.09;6341190;22;45437;-62
2022/11/20 02:15:26;;;;;;;;;10.25;9.75;;;;;8.74;60.67;100957.34;6341131;22;45727;-61
2022/11/20 02:17:51;;;;;;;;;8.25;6.25;;;;;8.73;60.45;100958.22;6341524;22;45181;-61
2022/11/20 02:20:17;;;;;;;;;6.00;6.00;;;;;8.70;59.96;100954.75;6341543;22;45249;-62
2022/11/20 02:23:03;;;;;;;;;5.50;5.25;;;;;8.71;60.29;100951.25;6341358;22;45238;-61
2022/11/20 02:25:32;;;;;;;;;5.50;5.50;;;;;8.69;59.80;100953.88;6341539;22;45150;-62
2022/11/20 02:27:57;;;;;;;;;8.75;8.00;;;;;8.66;60.21;100951.25;6340944;22;45463;-62
2022/11/20 02:30:23;;;;;;;;;7.75;7.00;;;;;8.65;60.25;100952.13;6341515;22;45234;-62
2022/11/20 02:32:48;;;;;;;;;7.75;6.75;;;;;8.64;60.52;100947.78;6340990;22;45447;-62
2022/11/20 02:35:19;;;;;;;;;11.50;10.00;;;;;8.61;60.36;100956.50;6341218;22;46041;-62
2022/11/20 02:37:48;;;;;;;;;7.75;7.00;;;;;8.58;60.20;100945.19;6338942;22;45240;-61
2022/11/20 02:40:14;;;;;;;;;8.50;8.25;;;;;8.61;60.41;100946.03;6341185;22;45287;-61
2022/11/20 02:42:39;;;;;;;;;9.50;7.25;;;;;8.62;60.55;100947.78;6340539;22;45742;-62
2022/11/20 02:45:05;;;;;;;;;13.25;9.75;;;;;8.63;60.47;100943.41;6341160;22;47962;-61
2022/11/20 02:47:31;;;;;;;;;13.50;10.50;;;;;8.64;60.47;100942.56;6340834;22;45316;-62
2022/11/20 02:49:56;;;;;;;;;9.00;8.00;;;;;8.64;60.20;100934.69;6340257;22;45276;-61
2022/11/20 02:52:21;;;;;;;;;12.50;6.75;;;;;8.64;60.14;100934.69;6340902;22;45297;-61
2022/11/20 02:54:47;;;;;;;;;11.75;8.25;;;;;8.63;60.29;100927.69;6341088;22;45506;-61
2022/11/20 02:57:12;;;;;;;;;13.25;11.00;;;;;8.59;60.25;100924.22;6340761;22;45246;-61
2022/11/20 02:59:37;;;;;;;;;10.75;9.75;;;;;8.58;60.36;100922.47;6340867;22;45187;-61
2022/11/20 03:02:03;;;;;;;;;11.25;11.00;;;;;8.58;60.46;100921.59;6341306;22;45154;-61
2022/11/20 03:04:28;;;;;;;;;7.00;5.25;;;;;8.57;60.37;100922.47;6341142;22;45245;-61
2022/11/20 03:06:54;;;;;;;;;9.50;8.25;;;;;8.54;60.58;100909.38;6340487;22;45241;-61
2022/11/20 03:09:20;;;;;;;;;8.50;8.25;;;;;8.49;60.62;100906.78;6340308;22;45101;-61
2022/11/20 03:11:45;;;;;;;;;11.75;10.00;;;;;8.50;60.21;100911.13;6340774;22;45214;-61
2022/11/20 03:14:10;;;;;;;;;9.00;9.00;;;;;8.43;60.53;100899.78;6340945;22;45227;-61
2022/11/20 03:16:36;;;;;;;;;11.25;10.00;;;;;8.43;60.58;100894.53;6340601;22;45150;-61
2022/11/20 03:19:01;;;;;;;;;12.25;11.00;;;;;8.42;60.27;100897.16;6341444;22;45197;-61
2022/11/20 03:21:26;;;;;;;;;13.00;11.75;;;;;8.41;60.23;100895.41;6342366;22;45524;-61
2022/11/20 03:23:53;;;;;;;;;13.00;11.00;;;;;8.39;60.63;100897.16;6342322;22;45162;-61
2022/11/20 03:26:22;;;;;;;;;11.50;10.00;;;;;8.36;60.38;100892.81;6342109;22;45343;-61
2022/11/20 03:28:58;;;;;;;;;10.50;9.75;;;;;8.35;60.16;100884.97;6342277;22;45289;-62
2022/11/20 03:31:41;;;;;;;;;8.75;8.50;;;;;8.36;60.54;100884.09;6342152;22;45159;-61
2022/11/20 03:34:08;;;;;;;;;10.25;9.50;;;;;8.34;60.36;100884.09;6340178;22;46539;-61
2022/11/20 03:36:34;;;;;;;;;16.00;10.75;;;;;8.30;60.28;100880.63;6342148;22;45257;-62
2022/11/20 03:39:00;;;;;;;;;10.75;10.25;;;;;8.27;60.29;100879.75;6341796;22;45150;-61
2022/11/20 03:41:28;;;;;;;;;11.00;11.00;;;;;8.23;60.39;100880.63;6342089;22;45161;-60
2022/11/20 03:43:56;;;;;;;;;11.00;10.00;;;;;8.20;60.50;100875.38;6342321;22;45356;-60
2022/11/20 03:46:22;;;;;;;;;12.75;11.00;;;;;8.14;60.61;100879.75;6340140;22;45317;-61
2022/11/20 03:48:48;;;;;;;;;14.00;12.75;;;;;8.13;60.67;100880.63;6341928;22;45236;-61
2022/11/20 03:51:16;;;;;;;;;13.25;11.75;;;;;8.09;60.40;100881.53;6341570;22;45444;-61
2022/11/20 03:53:43;;;;;;;;;10.75;10.75;;;;;8.07;60.89;100880.63;6341972;22;46354;-61
2022/11/20 03:56:10;;;;;;;;;11.25;11.00;;;;;8.04;60.71;100879.81;6341586;22;45270;-61
2022/11/20 03:58:39;;;;;;;;;18.75;14.75;;;;;7.95;60.80;100876.31;6341703;22;45238;-60
2022/11/20 04:01:29;;;;;;;;;19.75;13.00;;;;;7.94;60.72;100884.16;6341552;22;45371;-60
2022/11/20 04:03:56;;;;;;;;;10.00;10.00;;;;;7.90;60.97;100872.84;6341633;22;47141;-61
2022/11/20 04:06:25;;;;;;;;;16.75;12.75;;;;;7.88;60.81;100863.25;6341595;22;45325;-61
2022/11/20 04:08:51;;;;;;;;;15.25;12.75;;;;;7.81;60.75;100871.09;6342117;22;45195;-60
2022/11/20 04:11:27;;;;;;;;;16.50;14.00;;;;;7.76;60.79;100878.06;6339755;22;45399;-61
2022/11/20 04:13:55;;;;;;;;;12.75;11.25;;;;;7.75;60.95;100865.84;6339872;22;47359;-62
2022/11/20 04:16:22;;;;;;;;;16.50;12.50;;;;;7.71;60.87;100871.97;6341965;22;45250;-61
2022/11/20 04:18:55;;;;;;;;;11.50;11.50;;;;;7.73;61.08;100864.13;6341767;22;45182;-61
2022/11/20 04:21:20;;;;;;;;;17.25;12.25;;;;;7.73;61.14;100869.34;6341105;22;45413;-61
2022/11/20 04:23:46;;;;;;;;;13.50;12.50;;;;;7.70;61.04;100867.59;6342071;22;46154;-61
2022/11/20 04:26:12;;;;;;;;;16.00;12.50;;;;;7.68;61.19;100858.88;6341592;22;45326;-61
2022/11/20 04:28:38;;;;;;;;;15.75;13.50;;;;;7.69;61.26;100865.84;6342175;22;45272;-61
2022/11/20 04:31:12;;;;;;;;;15.50;12.25;;;;;7.69;61.18;100863.25;6341180;22;45163;-60
2022/11/20 04:33:39;;;;;;;;;11.75;11.75;;;;;7.63;61.41;100861.53;6341686;22;45206;-60
2022/11/20 04:36:10;;;;;;;;;12.75;12.50;;;;;7.63;61.41;100863.25;6341328;22;45213;-61
2022/11/20 04:38:35;;;;;;;;;12.00;11.00;;;;;7.66;61.44;100863.25;6341446;22;45281;-61
2022/11/20 04:41:03;;;;;;;;;10.75;10.75;;;;;7.67;61.42;100862.38;6341238;22;45366;-61
2022/11/20 04:43:29;;;;;;;;;16.50;12.50;;;;;7.66;61.41;100858.03;6341458;22;47238;-61
2022/11/20 04:45:55;;;;;;;;;15.25;14.25;;;;;7.63;61.26;100858.00;6341758;22;45171;-61
2022/11/20 04:48:21;;;;;;;;;13.50;12.25;;;;;7.61;61.54;100868.47;6339965;22;45282;-61
2022/11/20 04:50:46;;;;;;;;;15.50;14.25;;;;;7.63;61.25;100865.84;6341302;22;45086;-61
2022/11/20 04:53:12;;;;;;;;;21.00;14.25;;;;;7.62;61.50;100858.88;6341086;22;46098;-60
2022/11/20 04:55:37;;;;;;;;;12.00;11.00;;;;;7.56;61.42;100859.78;6341794;22;45127;-60
2022/11/20 04:58:02;;;;;;;;;15.25;12.25;;;;;7.49;61.60;100856.25;6341232;22;47027;-61
2022/11/20 05:00:27;;;;;;;;;11.25;11.00;;;;;7.46;61.40;100853.66;6341437;22;45268;-60
2022/11/20 05:02:53;;;;;;;;;12.75;12.75;;;;;7.42;61.51;100849.31;6339596;22;48185;-62
2022/11/20 05:05:18;;;;;;;;;19.50;14.50;;;;;7.37;61.61;100844.94;6341332;22;45176;-61
2022/11/20 05:07:43;;;;;;;;;14.50;12.00;;;;;7.37;61.75;100847.53;6342036;22;45221;-62
2022/11/20 05:10:09;;;;;;;;;17.00;12.25;;;;;7.38;61.47;100852.75;6339615;22;45455;-61
2022/11/20 05:12:34;;;;;;;;;12.25;11.00;;;;;7.39;61.26;100849.28;6341654;22;45520;-62
2022/11/20 05:14:59;;;;;;;;;12.50;12.00;;;;;7.36;61.73;100843.19;6341862;22;45338;-63
2022/11/20 05:17:25;;;;;;;;;14.25;12.00;;;;;7.32;61.76;100845.81;6341823;22;48424;-62
2022/11/20 05:19:50;;;;;;;;;13.00;11.50;;;;;7.30;61.59;100844.06;6341245;22;45383;-61
2022/11/20 05:22:15;;;;;;;;;15.00;12.00;;;;;7.29;61.72;100842.31;6341536;22;45344;-61
2022/11/20 05:24:41;;;;;;;;;16.00;14.00;;;;;7.30;61.66;100844.06;6341606;22;45244;-61
2022/11/20 05:27:06;;;;;;;;;17.00;9.75;;;;;7.28;61.67;100832.72;6342051;22;45242;-61
2022/11/20 05:29:31;;;;;;;;;14.00;12.25;;;;;7.31;61.83;100837.97;6339795;22;45256;-61
2022/11/20 05:31:57;;;;;;;;;13.00;11.00;;;;;7.31;61.87;100828.38;6341944;22;45959;-61
2022/11/20 05:34:22;;;;;;;;;10.50;10.50;;;;;7.32;61.61;100832.72;6341743;22;48494;-61
2022/11/20 05:36:47;;;;;;;;;14.25;13.00;;;;;7.35;61.92;100831.88;6341191;22;45191;-61
2022/11/20 05:39:13;;;;;;;;;11.25;10.00;;;;;7.34;61.93;100834.47;6341071;22;45146;-61
2022/11/20 05:41:38;;;;;;;;;14.75;13.00;;;;;7.38;61.49;100828.38;6340981;22;51512;-61
2022/11/20 05:44:03;;;;;;;;;11.25;10.25;;;;;7.36;61.94;100817.03;6339893;22;45205;-62
2022/11/20 05:46:29;;;;;;;;;13.50;12.00;;;;;7.42;61.92;100827.50;6341368;22;45280;-61
2022/11/20 05:48:55;;;;;;;;;11.00;10.50;;;;;7.43;61.78;100827.53;6340239;22;45465;-61
2022/11/20 05:51:21;;;;;;;;;9.75;9.25;;;;;7.41;61.97;100830.97;6341399;22;46125;-61
2022/11/20 05:53:47;;;;;;;;;11.50;10.25;;;;;7.44;61.90;100837.09;6341472;22;45150;-61
2022/11/20 05:56:17;;;;;;;;;11.75;11.50;;;;;7.45;61.89;100827.50;6341926;22;45480;-61
2022/11/20 05:58:43;;;;;;;;;13.00;10.00;;;;;7.43;62.03;100826.63;6341049;22;45352;-61
2022/11/20 06:01:18;;;;;;;;;16.00;13.00;;;;;7.40;61.75;100832.72;6341434;22;45241;-61
2022/11/20 06:03:47;;;;;;;;;13.50;11.00;;;;;7.35;62.06;100828.38;6341783;22;45150;-61
2022/11/20 06:06:13;;;;;;;;;15.50;11.50;;;;;7.32;61.88;100826.66;6340677;22;45447;-61
2022/11/20 06:08:39;;;;;;;;;13.25;10.25;;;;;7.30;61.86;100818.78;6341379;22;45266;-60
2022/11/20 06:11:07;;;;;;;;;10.50;10.50;;;;;7.32;61.80;100816.19;6339346;22;46404;-60
2022/11/20 06:13:32;;;;;;;;;10.25;9.50;;;;;7.27;62.02;100812.66;6341007;22;45325;-60
2022/11/20 06:15:58;;;;;;;;;10.25;8.50;;;;;7.26;62.11;100818.78;6341405;22;45234;-60
2022/11/20 06:18:25;;;;;;;;;10.00;9.75;;;;;7.21;61.87;100808.31;6341267;22;45387;-61
2022/11/20 06:21:00;;;;;;;;;11.25;8.75;;;;;7.19;61.86;100815.28;6341295;22;45299;-61
2022/11/20 06:23:25;;;;;;;;;12.50;10.50;;;;;7.20;62.12;100817.03;6341015;22;45257;-60
2022/11/20 06:25:50;;;;;;;;;9.50;9.50;;;;;7.18;62.11;100817.91;6341064;22;46391;-61
2022/11/20 06:28:15;;;;;;;;;10.50;10.00;;;;;7.13;62.12;100810.94;6339354;22;46183;-61
2022/11/20 06:30:45;;;;;;;;;10.25;10.00;;;;;7.14;62.18;100814.41;6340850;22;53343;-61
2022/11/20 06:33:11;;;;;;;;;11.25;11.25;;;;;7.06;62.22;100814.41;6340964;22;45257;-61
2022/11/20 06:35:36;;;;;;;;;12.75;10.75;;;;;7.04;62.37;100821.34;6340890;22;45411;-61
2022/11/20 06:38:01;;;;;;;;;10.75;9.50;;;;;7.04;62.05;100810.03;6341189;22;47110;-61
2022/11/20 06:40:26;;;;;;;;;12.50;12.50;;;;;7.00;62.15;100817.88;6341334;22;45271;-61
2022/11/20 06:42:54;;;;;;;;;14.25;11.00;;;;;6.99;62.38;100815.25;6341060;22;45155;-61
2022/11/20 06:45:20;;;;;;;;;9.75;9.75;;;;;6.99;62.37;100817.88;6340955;22;45233;-61
2022/11/20 06:47:45;;;;;;;;;11.50;10.00;;;;;7.01;62.39;100810.91;6341224;22;45515;-60
2022/11/20 06:50:10;;;;;;;;;12.00;10.00;;;;;6.99;62.29;100816.16;6338094;22;51117;-61
2022/11/20 06:52:36;;;;;;;;;9.00;9.00;;;;;6.94;62.48;100812.66;6341436;22;45130;-61
2022/11/20 06:55:01;;;;;;;;;11.00;10.00;;;;;6.92;62.47;100809.16;6342560;22;46056;-61
2022/11/20 06:57:26;;;;;;;;;12.75;10.75;;;;;6.79;62.14;100792.59;6342727;22;45524;-61
2022/11/20 06:59:51;;;;;;;;;12.50;9.75;;;;;6.88;62.48;100819.59;6340242;22;47305;-61
2022/11/20 07:02:17;;;;;;;;;15.00;13.50;;;;;6.85;62.53;100814.38;6341030;22;45152;-61
2022/11/20 07:04:42;;;;;;;;;12.25;11.00;;;;;6.85;62.45;100812.63;6340730;22;45066;-61
2022/11/20 07:07:08;;;;;;;;;9.50;9.50;;;;;6.82;62.41;100810.88;6342548;22;45515;-61
2022/11/20 07:09:33;;;;;;;;;12.00;11.00;;;;;6.85;62.70;100816.97;6342250;22;45261;-61
2022/11/20 07:11:59;;;;;;;;;15.00;9.50;;;;;6.82;62.54;100820.47;6342339;22;45187;-61
2022/11/20 07:14:24;;;;;;;;;15.50;12.00;;;;;6.83;62.50;100823.06;6342338;22;45456;-61
2022/11/20 07:16:50;;;;;;;;;14.25;11.50;;;;;6.85;62.44;100827.44;6341619;22;45221;-61
2022/11/20 07:19:15;;;;;;;;;12.00;11.00;;;;;6.90;62.51;100830.94;6342017;22;45314;-61
2022/11/20 07:21:40;;;;;;;;;10.75;10.75;;;;;6.88;62.60;100824.81;6342557;22;45391;-61
2022/11/20 07:24:06;;;;;;;;;10.75;10.50;;;;;6.94;62.48;100824.84;6342378;22;45515;-61
2022/11/20 07:26:31;;;;;;;;;11.25;9.50;;;;;6.92;62.60;100829.19;6342342;22;45242;-60
2022/11/20 07:28:56;;;;;;;;;12.50;9.75;;;;;6.92;62.46;100827.44;6341986;22;45336;-60
2022/11/20 07:31:21;;;;;;;;;12.50;12.50;;;;;6.90;62.50;100829.16;6342263;22;45253;-60
2022/11/20 07:33:47;;;;;;;;;15.50;13.25;;;;;6.84;62.73;100837.00;6342452;22;45175;-60
2022/11/20 07:36:12;;;;;;;;;14.00;11.00;;;;;6.84;62.63;100837.00;6342097;22;45180;-60
2022/11/20 07:38:38;;;;;;;;;12.50;11.25;;;;;6.82;62.75;100836.13;6341770;22;48877;-60
2022/11/20 07:41:03;;;;;;;;;11.75;9.50;;;;;6.86;62.82;100831.78;6340398;22;45298;-59
2022/11/20 07:43:29;;;;;;;;;12.50;12.00;;;;;6.86;62.76;100834.41;6342634;22;45179;-60
2022/11/20 07:45:56;;;;;;;;;12.50;11.00;;;;;6.87;62.79;100833.50;6341995;22;45493;-60
2022/11/20 07:48:21;;;;;;;;;16.00;11.50;;;;;6.85;62.38;100832.66;6341790;22;46284;-60
2022/11/20 07:50:47;;;;;;;;;14.75;12.50;;;;;6.85;62.92;100827.44;6341298;22;45263;-60
2022/11/20 07:53:13;;;;;;;;;14.00;10.75;;;;;6.87;62.67;100829.19;6342110;22;45191;-60
2022/11/20 07:55:39;;;;;;;;;12.00;11.25;;;;;6.87;63.03;100830.91;6341686;22;45203;-60
2022/11/20 07:58:04;;;;;;;;;15.25;12.50;;;;;6.89;62.75;100827.41;6341229;22;46337;-60
2022/11/20 08:00:30;;;;;;;;;15.25;13.50;;;;;6.87;62.76;100828.28;6342604;22;45241;-61
2022/11/20 08:02:55;;;;;;;;;16.50;13.50;;;;;6.86;62.90;100824.81;6342095;22;45210;-60
2022/11/20 08:05:21;;;;;;;;;13.50;12.00;;;;;6.88;62.89;100827.44;6339571;22;45606;-61
2022/11/20 08:07:46;;;;;;;;;25.00;21.75;;;;;6.93;62.87;100820.47;6342162;22;45181;-61
2022/11/20 08:10:15;;;;;;;;;14.75;11.75;;;;;6.94;63.09;100830.94;6342006;22;45246;-61
2022/11/20 08:15:32;;;;;;;;;12.25;11.75;;;;;6.95;62.81;100827.44;6341847;22;45274;-61
2022/11/20 08:18:10;;;;;;;;;12.50;12.50;;;;;7.00;63.01;100830.06;6339731;22;46043;-61
2022/11/20 08:20:36;;;;;;;;;13.75;13.75;;;;;7.03;62.86;100830.09;6341186;22;45284;-61
2022/11/20 08:23:05;;;;;;;;;18.75;17.00;;;;;7.02;63.13;100819.63;6342125;22;45271;-60
2022/11/20 08:25:31;;;;;;;;;15.25;12.50;;;;;7.05;63.15;100828.34;6341544;22;45277;-60
2022/11/20 08:28:00;;;;;;;;;16.75;16.75;;;;;7.02;62.99;100830.06;6341725;22;45351;-61
2022/11/20 08:30:27;;;;;;;;;13.00;12.50;;;;;7.02;63.31;100825.72;6342257;22;45199;-60
2022/11/20 08:32:53;;;;;;;;;10.75;10.00;;;;;7.09;63.03;100811.78;6342022;22;45263;-61
2022/11/20 08:35:20;;;;;;;;;18.50;16.00;;;;;7.13;63.06;100824.00;6341325;22;45340;-62
2022/11/20 08:37:49;;;;;;;;;18.25;15.50;;;;;7.15;63.27;100813.53;6341984;22;45323;-61
2022/11/20 08:40:15;;;;;;;;;14.75;14.00;;;;;7.16;63.23;100803.09;6341771;22;45338;-61
2022/11/20 08:42:48;;;;;;;;;14.25;14.00;;;;;7.18;62.95;100797.84;6341906;22;45424;-62
2022/11/20 08:45:13;;;;;;;;;13.00;13.00;;;;;7.18;63.33;100792.63;6341947;22;45318;-61
2022/11/20 08:47:39;;;;;;;;;17.50;14.25;;;;;7.18;63.29;100784.78;6339981;22;46093;-61
2022/11/20 08:50:04;;;;;;;;;16.50;15.00;;;;;7.23;63.33;100792.63;6339161;22;45211;-61
2022/11/20 08:52:29;;;;;;;;;20.00;17.50;;;;;7.24;63.30;100787.41;6342417;22;45204;-61
2022/11/20 08:54:55;;;;;;;;;21.00;17.50;;;;;7.30;63.17;100784.78;6342023;22;47243;-61
2022/11/20 08:57:20;;;;;;;;;13.00;13.00;;;;;7.38;63.32;100779.56;6339776;22;48964;-61
2022/11/20 08:59:45;;;;;;;;;22.75;18.50;;;;;7.45;63.05;100777.84;6341516;22;45151;-61
2022/11/20 09:02:11;;;;;;;;;17.00;13.00;;;;;7.53;63.12;100775.19;6342525;22;45184;-61
2022/11/20 09:04:37;;;;;;;;;16.75;13.25;;;;;7.61;63.25;100773.44;6341368;22;45375;-61
2022/11/20 09:07:03;;;;;;;;;11.75;11.75;;;;;7.66;63.26;100774.31;6341468;22;46019;-62
2022/11/20 09:09:28;;;;;;;;;15.75;13.00;;;;;7.68;63.17;100766.47;6341328;22;45431;-62
2022/11/20 09:11:53;;;;;;;;;14.00;12.00;;;;;7.79;63.41;100762.94;6340039;22;45266;-62
2022/11/20 09:14:19;;;;;;;;;14.25;12.25;;;;;7.83;63.25;100760.34;6341403;22;45182;-62
2022/11/20 09:16:47;;;;;;;;;19.75;14.75;;;;;7.81;63.29;100755.09;6341451;22;45907;-62
2022/11/20 09:19:12;;;;;;;;;14.00;11.25;;;;;7.83;63.36;100758.56;6341612;22;45313;-62
2022/11/20 09:21:38;;;;;;;;;9.75;9.75;;;;;7.87;63.20;100746.38;6340006;22;45256;-62
2022/11/20 09:24:04;;;;;;;;;12.75;11.25;;;;;7.90;63.29;100754.19;6341391;22;45264;-62
2022/11/20 09:26:30;;;;;;;;;12.75;11.00;;;;;7.86;63.03;100760.31;6341176;22;46262;-62
2022/11/20 09:28:55;;;;;;;;;13.75;12.50;;;;;7.94;63.59;100754.19;6341361;22;45182;-62
2022/11/20 09:31:25;;;;;;;;;12.00;11.75;;;;;7.96;63.41;100746.31;6341756;22;45133;-62
2022/11/20 09:33:51;;;;;;;;;15.50;12.25;;;;;8.01;63.43;100741.09;6339712;22;45378;-62
2022/11/20 09:36:18;;;;;;;;;13.00;10.50;;;;;8.03;63.38;100737.59;6341403;22;45234;-62
2022/11/20 09:38:47;;;;;;;;;19.00;14.75;;;;;8.04;63.53;100722.75;6339336;22;45400;-61
2022/11/20 09:41:24;;;;;;;;;14.50;12.75;;;;;8.05;63.41;100733.22;6341295;22;45100;-61
2022/11/20 09:43:52;;;;;;;;;12.25;12.25;;;;;8.06;63.61;100726.22;6341376;22;45415;-61
2022/11/20 09:46:29;;;;;;;;;9.00;7.75;;;;;8.06;63.46;100716.66;6339474;22;45918;-61
2022/11/20 09:49:17;;;;;;;;;10.50;10.00;;;;;8.05;63.67;100707.06;6340959;22;45242;-61
2022/11/20 09:51:53;;;;;;;;;10.00;9.25;;;;;8.13;63.71;100720.97;6341603;22;45197;-62
2022/11/20 09:54:39;;;;;;;;;10.75;9.25;;;;;8.14;63.57;100709.63;6341549;22;45566;-60
2022/11/20 09:57:19;;;;;;;;;11.25;9.50;;;;;8.12;63.84;100705.25;6341208;22;45238;-62
2022/11/20 09:59:58;;;;;;;;;12.00;11.00;;;;;8.15;63.73;100707.88;6340801;22;45256;-60
2022/11/20 10:02:28;;;;;;;;;10.00;10.00;;;;;8.10;63.65;100720.97;6341743;22;45306;-60
2022/11/20 10:05:15;;;;;;;;;12.00;9.25;;;;;8.16;63.99;100712.22;6340887;22;45166;-60
2022/11/20 10:07:47;;;;;;;;;13.00;13.00;;;;;8.16;63.93;100706.13;6339153;22;45255;-60
2022/11/20 10:10:33;;;;;;;;;13.50;11.25;;;;;8.17;64.17;100703.50;6341324;22;45294;-61
2022/11/20 10:13:13;;;;;;;;;10.25;10.25;;;;;8.15;63.96;100713.13;6341085;22;45273;-60
2022/11/20 10:15:48;;;;;;;;;11.25;10.25;;;;;8.14;64.14;100709.63;6341610;22;45369;-64
2022/11/20 10:18:16;;;;;;;;;13.00;12.00;;;;;8.21;64.12;100704.34;6341284;22;45277;-60
2022/11/20 10:20:59;;;;;;;;;10.50;8.50;;;;;8.25;64.18;100703.44;6340808;22;45251;-60
2022/11/20 10:23:33;;;;;;;;;10.00;10.00;;;;;8.18;64.29;100704.38;6341634;22;45316;-60
2022/11/20 10:26:02;;;;;;;;;11.25;10.50;;;;;8.21;64.56;100705.22;6340635;22;45359;-60
2022/11/20 10:28:49;;;;;;;;;10.50;7.00;;;;;8.17;64.28;100703.50;6339917;22;46222;-60
2022/11/20 10:31:29;;;;;;;;;9.75;9.75;;;;;8.19;64.68;100679.91;6340884;22;45175;-60
2022/11/20 10:33:58;;;;;;;;;10.75;9.25;;;;;8.22;64.65;100669.44;6339996;22;45795;-60
2022/11/20 10:36:28;;;;;;;;;7.50;6.75;;;;;8.22;64.68;100672.06;6339077;22;45264;-60
2022/11/20 10:39:17;;;;;;;;;9.50;8.25;;;;;8.23;64.55;100677.28;6338709;22;47666;-60
2022/11/20 10:41:49;;;;;;;;;11.00;10.25;;;;;8.24;65.01;100673.78;6341275;22;45391;-60
2022/11/20 10:47:04;;;;;;;;;11.00;8.75;;;;;8.36;64.95;100664.97;6339838;22;45309;-60
2022/11/20 10:49:32;;;;;;;;;11.00;8.75;;;;;8.44;64.92;100652.72;6340077;22;46070;-60
2022/11/20 10:52:12;;;;;;;;;13.75;11.00;;;;;8.56;65.09;100643.06;6340596;22;45132;-60
2022/11/20 10:55:03;;;;;;;;;5.25;5.00;;;;;8.68;65.15;100649.94;6340048;22;45255;-60
2022/11/20 10:58:13;;;;;;;;;11.00;10.25;;;;;8.74;65.17;100648.19;6322024;22;45257;-60
2022/11/20 11:00:38;;;;;;;;;8.75;6.00;;;;;8.78;65.52;100647.25;6295122;22;46094;-60
2022/11/20 11:03:20;;;;;;;;;10.25;9.00;;;;;8.87;65.48;100646.31;6339009;22;45248;-61
2022/11/20 11:05:51;;;;;;;;;12.50;7.00;;;;;8.90;65.25;100643.66;6340482;22;45324;-61
2022/11/20 11:08:19;;;;;;;;;8.50;7.75;;;;;8.85;65.20;100644.59;6338817;22;45467;-60
2022/11/20 11:10:57;;;;;;;;;9.00;8.50;;;;;8.94;65.40;100634.00;6341106;22;45967;-60
2022/11/20 11:13:24;;;;;;;;;9.00;8.75;;;;;8.96;65.62;100629.63;6340590;22;45237;-62
2022/11/20 11:15:50;;;;;;;;;12.25;8.25;;;;;9.06;65.42;100627.81;6338817;22;45247;-62
2022/11/20 11:18:31;;;;;;;;;11.75;11.75;;;;;9.06;65.55;100623.41;6340167;22;45183;-65
2022/11/20 11:20:59;;;;;;;;;7.00;7.00;;;;;9.14;65.43;100610.22;6339986;22;46261;-61
2022/11/20 11:23:37;;;;;;;;;8.75;6.50;;;;;9.13;65.34;100605.00;6341023;22;45209;-62
2022/11/20 11:26:06;;;;;;;;;8.75;8.00;;;;;9.16;65.72;100615.47;6340888;22;45272;-61
2022/11/20 11:28:32;;;;;;;;;8.50;7.50;;;;;9.15;65.64;100611.13;6340441;22;45320;-61
2022/11/20 11:30:58;;;;;;;;;7.75;7.00;;;;;9.18;65.89;100598.84;6340760;22;45308;-61
2022/11/20 11:33:25;;;;;;;;;11.00;7.75;;;;;9.15;65.45;100603.25;6340701;22;45154;-61
2022/11/20 11:35:57;;;;;;;;;13.50;11.25;;;;;9.15;66.07;100606.72;6340470;22;45154;-61
2022/11/20 11:38:38;;;;;;;;;11.00;8.75;;;;;9.14;66.03;100604.13;6339771;22;45244;-61